Decoded Metar for PAIN (MCKINLEY PARK in AK, USA) (IATA:INR) | Meteo·Mobile Aviation Weather
aviador You're here:

PAIN Decoded Metar

MCKINLEY PARK in AK, USA
Report Time2018-11-21 17:16:00
UTC Time2018-11-21 17:53:21
Flight Rules ifr IFR
Wind350° at 05 kt
W.Decomp.*RWY 34: 4.8 kt HW 1.5 kt LCW
W.Rank350° ranks 10
Current wind is below 350° avg. (5.5)
Visibility9999 m
Phenomena:N/A
Clouds:Overcast 009 Hf
Expected CloudBase > 400 ft AGL from Temp-Dew spread
Ceiling900 ft
Temp-7°C (ISA -19)
Dew Point-8°C (93% RH)
AAT-11.7°C
QNH995 hPa
Density Alt95 ft
Elevation1,719 ft
Report Wrong Elevation
Raw Report
PAIN 211716Z AUTO 35005KT 10SM OVC009 M07/M08 A2939 RMK AO2 CIG
007V012 FZRANO=

Extra information for PAIN:More info

Metar Taf Metar & Taf Last 4 Metars F.Rules Stats Wind Profile Meteogram Temp Stats Airport Information Weather charts Add Link Nearby VenuesMetar ALERT Operation Metar Decoded Social comments

AIRNAV info for PAIN